sensor_id;sensor_type;location;lat;lon;timestamp;pressure;altitude;pressure_sealevel;temperature;humidity
42001;BME280;27689;48.390;10.856;2022-07-10T00:01:21;96710.47;;;17.68;75.58
42001;BME280;27689;48.390;10.856;2022-07-10T00:04:05;96709.84;;;17.58;78.11
42001;BME280;27689;48.390;10.856;2022-07-10T00:06:49;96693.47;;;17.54;78.51
42001;BME280;27689;48.390;10.856;2022-07-10T00:09:33;96692.19;;;17.50;78.84
42001;BME280;27689;48.390;10.856;2022-07-10T00:12:17;96703.81;;;17.41;80.93
42001;BME280;27689;48.390;10.856;2022-07-10T00:15:02;96689.91;;;17.39;80.55
42001;BME280;27689;48.390;10.856;2022-07-10T00:17:46;96690.09;;;17.38;81.37
42001;BME280;27689;48.390;10.856;2022-07-10T00:20:30;96686.44;;;17.39;81.52
42001;BME280;27689;48.390;10.856;2022-07-10T00:23:14;96679.03;;;17.34;83.29
42001;BME280;27689;48.390;10.856;2022-07-10T00:25:58;96672.44;;;17.30;82.83
42001;BME280;27689;48.390;10.856;2022-07-10T00:28:42;96672.59;;;17.28;84.05
42001;BME280;27689;48.390;10.856;2022-07-10T00:31:26;96672.59;;;17.28;84.78
42001;BME280;27689;48.390;10.856;2022-07-10T00:34:10;96664.19;;;17.25;86.78
42001;BME280;27689;48.390;10.856;2022-07-10T00:36:55;96661.69;;;17.23;86.32
42001;BME280;27689;48.390;10.856;2022-07-10T00:39:39;96661.41;;;17.18;86.86
42001;BME280;27689;48.390;10.856;2022-07-10T00:42:23;96661.69;;;17.23;85.73
42001;BME280;27689;48.390;10.856;2022-07-10T00:45:07;96665.66;;;17.27;84.69
42001;BME280;27689;48.390;10.856;2022-07-10T00:47:51;96654.25;;;17.27;84.08
42001;BME280;27689;48.390;10.856;2022-07-10T00:50:35;96657.47;;;17.14;84.95
42001;BME280;27689;48.390;10.856;2022-07-10T00:53:19;96655.41;;;16.93;87.05
42001;BME280;27689;48.390;10.856;2022-07-10T00:56:03;96658.22;;;16.92;87.21
42001;BME280;27689;48.390;10.856;2022-07-10T00:58:49;96663.34;;;16.93;87.00
42001;BME280;27689;48.390;10.856;2022-07-10T01:01:34;96656.41;;;16.92;87.07
42001;BME280;27689;48.390;10.856;2022-07-10T01:04:17;96649.16;;;16.86;87.53
42001;BME280;27689;48.390;10.856;2022-07-10T01:07:01;96649.72;;;16.74;90.43
42001;BME280;27689;48.390;10.856;2022-07-10T01:09:45;96641.13;;;16.72;90.63
42001;BME280;27689;48.390;10.856;2022-07-10T01:12:29;96643.28;;;16.76;89.21
42001;BME280;27689;48.390;10.856;2022-07-10T01:15:15;96644.59;;;16.72;88.90
42001;BME280;27689;48.390;10.856;2022-07-10T01:17:59;96644.81;;;16.54;91.34
42001;BME280;27689;48.390;10.856;2022-07-10T01:20:42;96654.38;;;16.55;91.01
42001;BME280;27689;48.390;10.856;2022-07-10T01:23:26;96645.28;;;16.58;90.95
42001;BME280;27689;48.390;10.856;2022-07-10T01:26:10;96647.44;;;16.63;90.03
42001;BME280;27689;48.390;10.856;2022-07-10T01:28:54;96646.56;;;16.62;90.03
42001;BME280;27689;48.390;10.856;2022-07-10T01:31:38;96645.78;;;16.62;90.03
42001;BME280;27689;48.390;10.856;2022-07-10T01:34:25;96648.59;;;16.60;90.16
42001;BME280;27689;48.390;10.856;2022-07-10T01:37:09;96648.75;;;16.58;90.86
42001;BME280;27689;48.390;10.856;2022-07-10T01:39:53;96651.41;;;16.58;91.15
42001;BME280;27689;48.390;10.856;2022-07-10T01:42:37;96650.09;;;16.54;92.02
42001;BME280;27689;48.390;10.856;2022-07-10T01:45:21;96649.31;;;16.38;92.87
42001;BME280;27689;48.390;10.856;2022-07-10T01:48:05;96650.47;;;16.43;91.89
42001;BME280;27689;48.390;10.856;2022-07-10T01:50:49;96650.13;;;16.38;92.67
42001;BME280;27689;48.390;10.856;2022-07-10T01:53:33;96643.19;;;16.37;91.97
42001;BME280;27689;48.390;10.856;2022-07-10T01:56:17;96646.19;;;16.34;92.05
42001;BME280;27689;48.390;10.856;2022-07-10T01:59:01;96642.91;;;16.32;92.04
42001;BME280;27689;48.390;10.856;2022-07-10T02:01:47;96646.53;;;16.31;91.72
42001;BME280;27689;48.390;10.856;2022-07-10T02:04:30;96646.03;;;16.19;91.86
42001;BME280;27689;48.390;10.856;2022-07-10T02:07:27;96644.59;;;16.17;92.50
42001;BME280;27689;48.390;10.856;2022-07-10T02:10:11;96637.66;;;16.16;92.72
42001;BME280;27689;48.390;10.856;2022-07-10T02:12:55;96643.59;;;16.10;93.04
42001;BME280;27689;48.390;10.856;2022-07-10T02:15:39;96639.63;;;16.06;93.29
42001;BME280;27689;48.390;10.856;2022-07-10T02:18:23;96645.59;;;15.92;94.23
42001;BME280;27689;48.390;10.856;2022-07-10T02:21:07;96635.34;;;15.88;94.59
42001;BME280;27689;48.390;10.856;2022-07-10T02:23:51;96631.88;;;15.88;94.07
42001;BME280;27689;48.390;10.856;2022-07-10T02:26:34;96628.59;;;15.86;93.68
42001;BME280;27689;48.390;10.856;2022-07-10T02:29:19;96641.81;;;15.78;94.32
42001;BME280;27689;48.390;10.856;2022-07-10T02:32:02;96644.63;;;15.76;93.90
42001;BME280;27689;48.390;10.856;2022-07-10T02:34:47;96646.94;;;15.71;94.14
42001;BME280;27689;48.390;10.856;2022-07-10T02:37:31;96647.44;;;15.67;93.81
42001;BME280;27689;48.390;10.856;2022-07-10T02:40:15;96646.09;;;15.63;94.18
42001;BME280;27689;48.390;10.856;2022-07-10T02:42:59;96651.72;;;15.60;93.84
42001;BME280;27689;48.390;10.856;2022-07-10T02:45:42;96648.09;;;15.61;93.69
42001;BME280;27689;48.390;10.856;2022-07-10T02:48:26;96644.59;;;15.52;95.72
42001;BME280;27689;48.390;10.856;2022-07-10T02:51:10;96630.72;;;15.50;95.36
42001;BME280;27689;48.390;10.856;2022-07-10T02:53:54;96626.59;;;15.47;95.46
42001;BME280;27689;48.390;10.856;2022-07-10T02:56:38;96633.19;;;15.43;95.61
42001;BME280;27689;48.390;10.856;2022-07-10T02:59:23;96638.97;;;15.39;95.70
42001;BME280;27689;48.390;10.856;2022-07-10T03:02:07;96630.22;;;15.38;95.63
42001;BME280;27689;48.390;10.856;2022-07-10T03:04:51;96622.81;;;15.42;95.43
42001;BME280;27689;48.390;10.856;2022-07-10T03:07:35;96633.00;;;15.29;95.93
42001;BME280;27689;48.390;10.856;2022-07-10T03:10:18;96635.13;;;15.17;97.43
42001;BME280;27689;48.390;10.856;2022-07-10T03:13:02;96641.09;;;15.19;97.16
42001;BME280;27689;48.390;10.856;2022-07-10T03:15:46;96641.91;;;15.11;97.72
42001;BME280;27689;48.390;10.856;2022-07-10T03:18:30;96645.19;;;15.05;97.77
42001;BME280;27689;48.390;10.856;2022-07-10T03:21:14;96645.03;;;15.07;97.28
42001;BME280;27689;48.390;10.856;2022-07-10T03:23:58;96648.63;;;14.98;98.06
42001;BME280;27689;48.390;10.856;2022-07-10T03:26:42;96656.19;;;14.93;98.12
42001;BME280;27689;48.390;10.856;2022-07-10T03:29:27;96651.91;;;14.92;97.74
42001;BME280;27689;48.390;10.856;2022-07-10T03:32:11;96648.28;;;14.93;97.99
42001;BME280;27689;48.390;10.856;2022-07-10T03:34:55;96653.06;;;14.89;98.02
42001;BME280;27689;48.390;10.856;2022-07-10T03:37:39;96644.16;;;14.90;98.10
42001;BME280;27689;48.390;10.856;2022-07-10T03:40:23;96641.66;;;14.89;97.43
42001;BME280;27689;48.390;10.856;2022-07-10T03:43:07;96642.19;;;14.92;97.29
42001;BME280;27689;48.390;10.856;2022-07-10T03:45:51;96646.78;;;14.90;97.08
42001;BME280;27689;48.390;10.856;2022-07-10T03:48:35;96649.28;;;14.92;97.35
42001;BME280;27689;48.390;10.856;2022-07-10T03:51:19;96648.44;;;14.91;96.97
42001;BME280;27689;48.390;10.856;2022-07-10T03:54:03;96648.59;;;14.90;96.81
42001;BME280;27689;48.390;10.856;2022-07-10T03:56:47;96642.13;;;14.84;97.16
42001;BME280;27689;48.390;10.856;2022-07-10T03:59:49;96639.19;;;14.87;96.19
42001;BME280;27689;48.390;10.856;2022-07-10T04:02:34;96639.84;;;14.81;97.45
42001;BME280;27689;48.390;10.856;2022-07-10T04:05:17;96635.72;;;14.78;97.78
42001;BME280;27689;48.390;10.856;2022-07-10T04:08:02;96636.19;;;14.74;97.84
42001;BME280;27689;48.390;10.856;2022-07-10T04:10:46;96638.50;;;14.77;97.61
42001;BME280;27689;48.390;10.856;2022-07-10T04:13:30;96647.72;;;14.73;98.55
42001;BME280;27689;48.390;10.856;2022-07-10T04:16:14;96655.47;;;14.74;98.94
42001;BME280;27689;48.390;10.856;2022-07-10T04:18:58;96656.31;;;14.75;98.33
42001;BME280;27689;48.390;10.856;2022-07-10T04:21:42;96662.59;;;14.82;99.24
42001;BME280;27689;48.390;10.856;2022-07-10T04:24:26;96654.69;;;14.90;98.97
42001;BME280;27689;48.390;10.856;2022-07-10T04:27:10;96649.94;;;14.94;97.56
42001;BME280;27689;48.390;10.856;2022-07-10T04:29:54;96654.25;;;15.03;97.70
42001;BME280;27689;48.390;10.856;2022-07-10T04:32:37;96646.63;;;15.00;98.03
42001;BME280;27689;48.390;10.856;2022-07-10T04:35:21;96659.69;;;15.01;98.54
42001;BME280;27689;48.390;10.856;2022-07-10T04:38:05;96654.75;;;15.14;96.51
42001;BME280;27689;48.390;10.856;2022-07-10T04:40:49;96657.59;;;15.13;96.34
42001;BME280;27689;48.390;10.856;2022-07-10T04:43:33;96659.50;;;15.03;98.50
42001;BME280;27689;48.390;10.856;2022-07-10T04:46:17;96655.72;;;15.05;97.84
42001;BME280;27689;48.390;10.856;2022-07-10T04:49:01;96659.19;;;15.06;97.70
42001;BME280;27689;48.390;10.856;2022-07-10T04:51:45;96669.44;;;15.09;97.47
42001;BME280;27689;48.390;10.856;2022-07-10T04:54:29;96665.31;;;15.06;98.15
42001;BME280;27689;48.390;10.856;2022-07-10T04:57:13;96663.84;;;15.12;97.03
42001;BME280;27689;48.390;10.856;2022-07-10T04:59:56;96658.56;;;15.12;97.23
42001;BME280;27689;48.390;10.856;2022-07-10T05:02:40;96662.34;;;15.09;97.83
42001;BME280;27689;48.390;10.856;2022-07-10T05:05:24;96668.31;;;15.11;97.51
42001;BME280;27689;48.390;10.856;2022-07-10T05:08:09;96667.31;;;15.12;97.76
42001;BME280;27689;48.390;10.856;2022-07-10T05:10:52;96669.59;;;15.07;97.93
42001;BME280;27689;48.390;10.856;2022-07-10T05:13:36;96674.56;;;15.10;96.71
42001;BME280;27689;48.390;10.856;2022-07-10T05:16:20;96670.59;;;15.06;96.97
42001;BME280;27689;48.390;10.856;2022-07-10T05:19:04;96669.44;;;15.09;97.12
42001;BME280;27689;48.390;10.856;2022-07-10T05:21:48;96663.34;;;15.08;96.68
42001;BME280;27689;48.390;10.856;2022-07-10T05:24:32;96668.94;;;15.05;97.27
42001;BME280;27689;48.390;10.856;2022-07-10T05:27:16;96670.91;;;15.03;98.41
42001;BME280;27689;48.390;10.856;2022-07-10T05:30:02;96670.59;;;15.06;97.27
42001;BME280;27689;48.390;10.856;2022-07-10T05:32:46;96675.38;;;15.11;98.00
42001;BME280;27689;48.390;10.856;2022-07-10T05:35:30;96676.69;;;15.07;97.33
42001;BME280;27689;48.390;10.856;2022-07-10T05:38:14;96679.47;;;15.05;96.02
42001;BME280;27689;48.390;10.856;2022-07-10T05:40:58;96682.94;;;15.06;95.37
42001;BME280;27689;48.390;10.856;2022-07-10T05:43:42;96678.19;;;15.17;95.86
42001;BME280;27689;48.390;10.856;2022-07-10T05:46:26;96680.88;;;15.26;96.54
42001;BME280;27689;48.390;10.856;2022-07-10T05:49:09;96683.50;;;15.34;93.83
42001;BME280;27689;48.390;10.856;2022-07-10T05:51:53;96676.25;;;15.36;93.91
42001;BME280;27689;48.390;10.856;2022-07-10T05:54:38;96673.63;;;15.44;91.52
42001;BME280;27689;48.390;10.856;2022-07-10T05:57:21;96678.75;;;15.45;92.41
42001;BME280;27689;48.390;10.856;2022-07-10T06:00:06;96667.19;;;15.46;90.85
42001;BME280;27689;48.390;10.856;2022-07-10T06:02:50;96677.94;;;15.53;91.65
42001;BME280;27689;48.390;10.856;2022-07-10T06:05:33;96673.66;;;15.60;91.42
42001;BME280;27689;48.390;10.856;2022-07-10T06:08:18;96680.63;;;15.69;90.46
42001;BME280;27689;48.390;10.856;2022-07-10T06:11:01;96679.13;;;15.75;89.90
42001;BME280;27689;48.390;10.856;2022-07-10T06:13:45;96672.19;;;15.82;90.95
42001;BME280;27689;48.390;10.856;2022-07-10T06:16:29;96674.66;;;15.92;89.03
42001;BME280;27689;48.390;10.856;2022-07-10T06:19:13;96668.88;;;15.88;86.63
42001;BME280;27689;48.390;10.856;2022-07-10T06:21:57;96668.88;;;15.88;86.17
42001;BME280;27689;48.390;10.856;2022-07-10T06:25:01;96670.06;;;15.85;85.56
42001;BME280;27689;48.390;10.856;2022-07-10T06:27:45;96677.63;;;15.88;85.43
42001;BME280;27689;48.390;10.856;2022-07-10T06:30:29;96682.91;;;15.88;85.78
42001;BME280;27689;48.390;10.856;2022-07-10T06:33:13;96681.09;;;15.89;85.11
42001;BME280;27689;48.390;10.856;2022-07-10T06:35:57;96685.75;;;15.95;86.20
42001;BME280;27689;48.390;10.856;2022-07-10T06:38:41;96689.03;;;15.97;84.76
42001;BME280;27689;48.390;10.856;2022-07-10T06:41:25;96696.47;;;15.94;84.54
42001;BME280;27689;48.390;10.856;2022-07-10T06:44:09;96692.84;;;15.95;84.02
42001;BME280;27689;48.390;10.856;2022-07-10T06:46:52;96696.78;;;15.91;84.46
42001;BME280;27689;48.390;10.856;2022-07-10T06:49:55;96699.13;;;15.94;85.34
42001;BME280;27689;48.390;10.856;2022-07-10T06:52:39;96704.56;;;16.00;85.63
42001;BME280;27689;48.390;10.856;2022-07-10T06:55:24;96701.28;;;15.98;83.67
42001;BME280;27689;48.390;10.856;2022-07-10T06:58:08;96712.50;;;16.08;83.68
42001;BME280;27689;48.390;10.856;2022-07-10T07:00:52;96712.81;;;16.05;82.71
42001;BME280;27689;48.390;10.856;2022-07-10T07:03:36;96709.19;;;16.06;82.46
42001;BME280;27689;48.390;10.856;2022-07-10T07:06:20;96708.69;;;16.03;82.42
42001;BME280;27689;48.390;10.856;2022-07-10T07:09:04;96702.06;;;16.07;82.69
42001;BME280;27689;48.390;10.856;2022-07-10T07:11:48;96711.00;;;16.14;80.81
42001;BME280;27689;48.390;10.856;2022-07-10T07:14:32;96704.03;;;16.21;79.26
42001;BME280;27689;48.390;10.856;2022-07-10T07:17:16;96707.69;;;16.20;80.82
42001;BME280;27689;48.390;10.856;2022-07-10T07:20:06;96713.97;;;16.19;80.65
42001;BME280;27689;48.390;10.856;2022-07-10T07:23:09;96717.28;;;16.13;80.98
42001;BME280;27689;48.390;10.856;2022-07-10T07:25:55;96722.88;;;16.18;80.06
42001;BME280;27689;48.390;10.856;2022-07-10T07:28:40;96728.84;;;16.20;79.47
42001;BME280;27689;48.390;10.856;2022-07-10T07:31:23;96717.28;;;16.29;80.57
42001;BME280;27689;48.390;10.856;2022-07-10T07:34:07;96712.28;;;16.34;80.15
42001;BME280;27689;48.390;10.856;2022-07-10T07:36:51;96715.22;;;16.47;80.44
42001;BME280;27689;48.390;10.856;2022-07-10T07:39:35;96716.88;;;16.65;78.17
42001;BME280;27689;48.390;10.856;2022-07-10T07:42:20;96725.81;;;16.64;77.48
42001;BME280;27689;48.390;10.856;2022-07-10T07:45:04;96721.69;;;16.61;78.21
42001;BME280;27689;48.390;10.856;2022-07-10T07:50:32;96729.44;;;16.63;78.15
42001;BME280;27689;48.390;10.856;2022-07-10T07:53:16;96722.34;;;16.63;75.62
42001;BME280;27689;48.390;10.856;2022-07-10T07:56:00;96711.41;;;16.66;76.71
42001;BME280;27689;48.390;10.856;2022-07-10T07:58:44;96719.19;;;16.76;75.77
42001;BME280;27689;48.390;10.856;2022-07-10T08:01:28;96709.56;;;16.83;74.83
42001;BME280;27689;48.390;10.856;2022-07-10T08:04:11;96717.66;;;16.89;75.28
42001;BME280;27689;48.390;10.856;2022-07-10T08:06:55;96707.34;;;16.95;74.91
42001;BME280;27689;48.390;10.856;2022-07-10T08:09:39;96702.22;;;17.01;74.59
42001;BME280;27689;48.390;10.856;2022-07-10T08:12:23;96711.16;;;17.00;72.42
42001;BME280;27689;48.390;10.856;2022-07-10T08:15:08;96694.75;;;17.05;73.12
42001;BME280;27689;48.390;10.856;2022-07-10T08:17:52;96702.38;;;17.00;71.21
42001;BME280;27689;48.390;10.856;2022-07-10T08:20:36;96709.31;;;17.01;70.98
42001;BME280;27689;48.390;10.856;2022-07-10T08:23:20;96708.50;;;17.00;69.94
42001;BME280;27689;48.390;10.856;2022-07-10T08:26:04;96703.81;;;17.10;70.00
42001;BME280;27689;48.390;10.856;2022-07-10T08:28:48;96708.09;;;17.19;69.31
42001;BME280;27689;48.390;10.856;2022-07-10T08:31:32;96715.88;;;17.44;71.92
42001;BME280;27689;48.390;10.856;2022-07-10T08:34:16;96711.25;;;17.46;70.57
42001;BME280;27689;48.390;10.856;2022-07-10T08:37:00;96699.66;;;17.47;71.72
42001;BME280;27689;48.390;10.856;2022-07-10T08:39:45;96707.84;;;17.60;69.42
42001;BME280;27689;48.390;10.856;2022-07-10T08:42:28;96704.84;;;17.63;68.84
42001;BME280;27689;48.390;10.856;2022-07-10T08:45:14;96696.25;;;17.61;66.78
42001;BME280;27689;48.390;10.856;2022-07-10T08:48:01;96700.50;;;17.70;66.76
42001;BME280;27689;48.390;10.856;2022-07-10T08:50:47;96698.56;;;17.87;69.23
42001;BME280;27689;48.390;10.856;2022-07-10T08:53:31;96691.69;;;18.15;68.38
42001;BME280;27689;48.390;10.856;2022-07-10T08:56:15;96688.81;;;18.25;65.82
42001;BME280;27689;48.390;10.856;2022-07-10T08:58:59;96693.09;;;18.41;65.33
42001;BME280;27689;48.390;10.856;2022-07-10T09:01:44;96692.38;;;18.32;64.56
42001;BME280;27689;48.390;10.856;2022-07-10T09:04:28;96692.78;;;18.06;64.90
42001;BME280;27689;48.390;10.856;2022-07-10T09:07:12;96681.00;;;17.86;66.27
42001;BME280;27689;48.390;10.856;2022-07-10T09:09:56;96690.09;;;17.91;66.52
42001;BME280;27689;48.390;10.856;2022-07-10T09:12:51;96688.41;;;18.28;67.97
42001;BME280;27689;48.390;10.856;2022-07-10T09:15:36;96696.41;;;18.57;62.43
42001;BME280;27689;48.390;10.856;2022-07-10T09:18:22;96692.88;;;18.80;66.37
42001;BME280;27689;48.390;10.856;2022-07-10T09:21:06;96691.06;;;18.80;60.87
42001;BME280;27689;48.390;10.856;2022-07-10T09:23:54;96696.91;;;18.76;59.30
42001;BME280;27689;48.390;10.856;2022-07-10T09:26:39;96691.38;;;18.48;59.57
42001;BME280;27689;48.390;10.856;2022-07-10T09:29:24;96686.94;;;18.63;60.37
42001;BME280;27689;48.390;10.856;2022-07-10T09:32:08;96685.00;;;18.72;60.59
42001;BME280;27689;48.390;10.856;2022-07-10T09:34:53;96683.81;;;18.89;59.77
42001;BME280;27689;48.390;10.856;2022-07-10T09:37:57;96680.16;;;18.90;58.22
42001;BME280;27689;48.390;10.856;2022-07-10T09:40:41;96680.81;;;18.77;58.16
42001;BME280;27689;48.390;10.856;2022-07-10T09:43:25;96680.06;;;18.98;59.00
42001;BME280;27689;48.390;10.856;2022-07-10T09:46:09;96684.59;;;19.19;57.60
42001;BME280;27689;48.390;10.856;2022-07-10T09:49:12;96684.81;;;19.53;57.94
42001;BME280;27689;48.390;10.856;2022-07-10T09:51:56;96667.03;;;19.54;56.10
42001;BME280;27689;48.390;10.856;2022-07-10T09:54:40;96674.94;;;19.32;55.89
42001;BME280;27689;48.390;10.856;2022-07-10T09:57:25;96667.22;;;19.52;55.32
42001;BME280;27689;48.390;10.856;2022-07-10T10:00:11;96671.66;;;19.66;53.60
42001;BME280;27689;48.390;10.856;2022-07-10T10:02:59;96666.78;;;19.70;54.61
42001;BME280;27689;48.390;10.856;2022-07-10T10:05:58;96664.50;;;19.88;55.56
42001;BME280;27689;48.390;10.856;2022-07-10T10:11:32;96666.69;;;20.06;56.52
42001;BME280;27689;48.390;10.856;2022-07-10T10:14:16;96667.78;;;19.90;55.18
42001;BME280;27689;48.390;10.856;2022-07-10T10:17:02;96662.28;;;19.70;54.78
42001;BME280;27689;48.390;10.856;2022-07-10T10:19:49;96675.13;;;19.67;53.81
42001;BME280;27689;48.390;10.856;2022-07-10T10:22:53;96673.44;;;19.45;52.55
42001;BME280;27689;48.390;10.856;2022-07-10T10:25:39;96670.78;;;19.09;54.11
42001;BME280;27689;48.390;10.856;2022-07-10T10:28:24;96667.97;;;18.95;53.51
42001;BME280;27689;48.390;10.856;2022-07-10T10:31:08;96669.09;;;19.22;54.34
42001;BME280;27689;48.390;10.856;2022-07-10T10:33:55;96665.06;;;19.62;56.06
42001;BME280;27689;48.390;10.856;2022-07-10T10:39:27;96670.06;;;19.72;52.46
42001;BME280;27689;48.390;10.856;2022-07-10T10:42:21;96665.25;;;19.61;51.95
42001;BME280;27689;48.390;10.856;2022-07-10T10:45:24;96675.56;;;19.34;50.67
42001;BME280;27689;48.390;10.856;2022-07-10T10:48:09;96662.34;;;19.56;50.28
42001;BME280;27689;48.390;10.856;2022-07-10T10:50:53;96658.16;;;19.68;49.47
42001;BME280;27689;48.390;10.856;2022-07-10T10:53:37;96655.38;;;19.97;50.97
42001;BME280;27689;48.390;10.856;2022-07-10T10:56:21;96654.34;;;20.26;49.43
42001;BME280;27689;48.390;10.856;2022-07-10T10:59:05;96663.16;;;19.99;47.61
42001;BME280;27689;48.390;10.856;2022-07-10T11:02:07;96659.44;;;19.72;50.71
42001;BME280;27689;48.390;10.856;2022-07-10T11:08:02;96653.09;;;19.94;48.86
42001;BME280;27689;48.390;10.856;2022-07-10T11:10:47;96644.19;;;20.08;49.09
42001;BME280;27689;48.390;10.856;2022-07-10T11:13:31;96653.53;;;20.54;47.49
42001;BME280;27689;48.390;10.856;2022-07-10T11:16:15;96645.44;;;20.68;46.77
42001;BME280;27689;48.390;10.856;2022-07-10T11:19:00;96642.00;;;20.74;45.11
42001;BME280;27689;48.390;10.856;2022-07-10T11:21:47;96646.56;;;20.53;44.56
42001;BME280;27689;48.390;10.856;2022-07-10T11:30:10;96657.69;;;20.07;46.60
42001;BME280;27689;48.390;10.856;2022-07-10T11:32:55;96643.56;;;20.34;46.51
42001;BME280;27689;48.390;10.856;2022-07-10T11:35:39;96649.69;;;20.63;46.54
42001;BME280;27689;48.390;10.856;2022-07-10T11:38:24;96654.06;;;20.70;45.82
42001;BME280;27689;48.390;10.856;2022-07-10T11:41:14;96647.69;;;20.37;46.85
42001;BME280;27689;48.390;10.856;2022-07-10T11:44:00;96642.94;;;20.60;46.30
42001;BME280;27689;48.390;10.856;2022-07-10T11:46:44;96639.78;;;20.85;44.76
42001;BME280;27689;48.390;10.856;2022-07-10T11:49:32;96633.34;;;21.07;44.60
42001;BME280;27689;48.390;10.856;2022-07-10T11:52:18;96639.72;;;20.71;44.89
42001;BME280;27689;48.390;10.856;2022-07-10T11:55:44;96640.06;;;20.34;44.90
42001;BME280;27689;48.390;10.856;2022-07-10T11:58:15;96649.97;;;20.12;45.44
42001;BME280;27689;48.390;10.856;2022-07-10T12:01:02;96647.19;;;19.99;45.58
42001;BME280;27689;48.390;10.856;2022-07-10T12:06:46;96640.81;;;20.49;45.50
42001;BME280;27689;48.390;10.856;2022-07-10T12:09:31;96639.06;;;21.04;46.12
42001;BME280;27689;48.390;10.856;2022-07-10T12:12:14;96634.75;;;21.09;43.69
42001;BME280;27689;48.390;10.856;2022-07-10T12:14:58;96637.06;;;20.71;44.17
42001;BME280;27689;48.390;10.856;2022-07-10T12:17:51;96645.63;;;20.67;43.94
42001;BME280;27689;48.390;10.856;2022-07-10T12:20:35;96653.34;;;20.27;44.43
42001;BME280;27689;48.390;10.856;2022-07-10T12:23:21;96654.47;;;20.39;44.42
42001;BME280;27689;48.390;10.856;2022-07-10T12:26:10;96641.94;;;20.68;44.02
42001;BME280;27689;48.390;10.856;2022-07-10T12:28:55;96651.19;;;20.72;44.73
42001;BME280;27689;48.390;10.856;2022-07-10T12:31:39;96636.53;;;20.96;43.67
42001;BME280;27689;48.390;10.856;2022-07-10T12:34:35;96648.78;;;21.25;42.61
42001;BME280;27689;48.390;10.856;2022-07-10T12:37:19;96643.50;;;20.90;44.35
42001;BME280;27689;48.390;10.856;2022-07-10T12:40:04;96654.03;;;21.05;43.26
42001;BME280;27689;48.390;10.856;2022-07-10T12:42:47;96646.19;;;20.97;43.27
42001;BME280;27689;48.390;10.856;2022-07-10T12:45:31;96651.00;;;20.73;43.37
42001;BME280;27689;48.390;10.856;2022-07-10T12:48:21;96653.28;;;20.76;43.41
42001;BME280;27689;48.390;10.856;2022-07-10T12:51:25;96652.47;;;20.83;42.84
42001;BME280;27689;48.390;10.856;2022-07-10T12:54:29;96651.78;;;21.15;43.90
42001;BME280;27689;48.390;10.856;2022-07-10T12:57:12;96654.13;;;21.38;41.79
42001;BME280;27689;48.390;10.856;2022-07-10T13:00:02;96658.75;;;21.16;42.57
42001;BME280;27689;48.390;10.856;2022-07-10T13:02:47;96657.03;;;21.43;42.90
42001;BME280;27689;48.390;10.856;2022-07-10T13:05:40;96654.59;;;21.68;42.65
42001;BME280;27689;48.390;10.856;2022-07-10T13:08:24;96660.78;;;21.75;40.87
42001;BME280;27689;48.390;10.856;2022-07-10T13:11:08;96654.66;;;21.81;41.72
42001;BME280;27689;48.390;10.856;2022-07-10T13:13:52;96656.06;;;21.64;41.41
42001;BME280;27689;48.390;10.856;2022-07-10T13:16:36;96654.38;;;21.43;41.94
42001;BME280;27689;48.390;10.856;2022-07-10T13:19:20;96657.84;;;21.43;40.79
42001;BME280;27689;48.390;10.856;2022-07-10T13:22:04;96659.22;;;21.26;42.75
42001;BME280;27689;48.390;10.856;2022-07-10T13:24:48;96655.94;;;21.24;41.63
42001;BME280;27689;48.390;10.856;2022-07-10T13:27:32;96652.22;;;21.19;41.91
42001;BME280;27689;48.390;10.856;2022-07-10T13:30:16;96661.03;;;20.71;42.16
42001;BME280;27689;48.390;10.856;2022-07-10T13:32:59;96649.66;;;20.91;44.33
42001;BME280;27689;48.390;10.856;2022-07-10T13:35:43;96658.84;;;21.29;42.77
42001;BME280;27689;48.390;10.856;2022-07-10T13:38:27;96653.38;;;21.51;41.80
42001;BME280;27689;48.390;10.856;2022-07-10T13:41:11;96646.69;;;22.21;43.36
42001;BME280;27689;48.390;10.856;2022-07-10T13:43:55;96649.50;;;22.52;41.57
42001;BME280;27689;48.390;10.856;2022-07-10T13:46:39;96647.78;;;22.91;41.29
42001;BME280;27689;48.390;10.856;2022-07-10T13:49:23;96645.94;;;22.98;38.46
42001;BME280;27689;48.390;10.856;2022-07-10T13:52:08;96646.03;;;22.32;38.38
42001;BME280;27689;48.390;10.856;2022-07-10T13:54:52;96651.38;;;22.12;38.62
42001;BME280;27689;48.390;10.856;2022-07-10T13:57:36;96658.13;;;21.88;38.99
42001;BME280;27689;48.390;10.856;2022-07-10T14:00:20;96651.59;;;22.04;39.40
42001;BME280;27689;48.390;10.856;2022-07-10T14:03:05;96653.84;;;22.13;39.23
42001;BME280;27689;48.390;10.856;2022-07-10T14:05:49;96646.03;;;21.99;38.04
42001;BME280;27689;48.390;10.856;2022-07-10T14:08:33;96645.22;;;21.92;38.03
42001;BME280;27689;48.390;10.856;2022-07-10T14:11:17;96644.59;;;21.90;38.19
42001;BME280;27689;48.390;10.856;2022-07-10T14:14:01;96638.44;;;21.96;38.41
42001;BME280;27689;48.390;10.856;2022-07-10T14:16:45;96649.72;;;21.98;38.78
42001;BME280;27689;48.390;10.856;2022-07-10T14:19:29;96644.59;;;21.96;39.20
42001;BME280;27689;48.390;10.856;2022-07-10T14:22:13;96647.63;;;21.60;37.49
42001;BME280;27689;48.390;10.856;2022-07-10T14:24:57;96651.69;;;21.36;38.97
42001;BME280;27689;48.390;10.856;2022-07-10T14:27:40;96642.28;;;21.47;38.17
42001;BME280;27689;48.390;10.856;2022-07-10T14:30:24;96648.88;;;21.51;38.46
42001;BME280;27689;48.390;10.856;2022-07-10T14:33:08;96642.09;;;21.55;37.32
42001;BME280;27689;48.390;10.856;2022-07-10T14:35:52;96647.97;;;21.37;37.57
42001;BME280;27689;48.390;10.856;2022-07-10T14:38:36;96648.03;;;21.51;38.60
42001;BME280;27689;48.390;10.856;2022-07-10T14:41:20;96637.16;;;21.59;39.03
42001;BME280;27689;48.390;10.856;2022-07-10T14:44:05;96637.41;;;21.64;37.59